createdAt,value
2022-10-11T00:00:55.425Z,78.93
2022-10-11T00:01:56.979Z,78.41
2022-10-11T00:02:59.310Z,78.65
2022-10-11T00:04:00.908Z,78.43
2022-10-11T00:05:02.685Z,78.32
2022-10-11T00:06:06.064Z,77.85
2022-10-11T00:07:08.079Z,77.35
2022-10-11T00:08:12.083Z,77.63
2022-10-11T00:09:16.164Z,77.84
2022-10-11T00:10:18.815Z,77.67
2022-10-11T00:11:20.358Z,78.08
2022-10-11T00:12:21.892Z,78.35
2022-10-11T00:13:23.528Z,78.35
2022-10-11T00:14:26.661Z,78.23
2022-10-11T00:15:28.382Z,78.00
2022-10-11T00:16:30.098Z,78.38
2022-10-11T00:17:32.094Z,77.51
2022-10-11T00:18:33.608Z,77.91
2022-10-11T00:19:35.140Z,77.96
2022-10-11T00:20:36.674Z,78.11
2022-10-11T00:21:38.302Z,77.67
2022-10-11T00:22:40.689Z,77.58
2022-10-11T00:23:43.040Z,77.14
2022-10-11T00:25:03.325Z,76.86
2022-10-11T00:26:07.489Z,76.99
2022-10-11T00:27:09.400Z,76.45
2022-10-11T00:28:10.990Z,76.10
2022-10-11T00:29:12.847Z,76.10
2022-10-11T00:30:14.615Z,76.24
2022-10-11T00:31:16.553Z,76.39
2022-10-11T00:32:18.341Z,76.07
2022-10-11T00:33:19.886Z,75.75
2022-10-11T00:34:21.448Z,76.20
2022-10-11T00:35:22.970Z,76.55
2022-10-11T00:36:25.003Z,76.16
2022-10-11T00:37:26.553Z,76.29
2022-10-11T00:38:28.270Z,76.50
2022-10-11T00:39:30.029Z,76.25
2022-10-11T00:40:31.563Z,75.86
2022-10-11T00:41:33.246Z,76.47
2022-10-11T00:42:35.045Z,76.71
2022-10-11T00:43:36.556Z,76.77
2022-10-11T00:44:40.046Z,77.19
2022-10-11T00:45:56.889Z,77.46
2022-10-11T00:47:01.814Z,77.40
2022-10-11T00:48:11.648Z,77.40
2022-10-11T00:49:42.833Z,77.51
2022-10-11T00:50:44.456Z,77.19
2022-10-11T00:51:51.203Z,77.45
2022-10-11T00:52:59.468Z,77.60
2022-10-11T00:54:02.258Z,77.12
2022-10-11T00:55:14.381Z,77.52
2022-10-11T00:56:26.272Z,77.05
2022-10-11T00:57:31.721Z,77.69
2022-10-11T00:58:36.344Z,77.25
2022-10-11T00:59:42.445Z,76.67
2022-10-11T01:00:44.101Z,76.83
2022-10-11T01:01:45.789Z,77.01
2022-10-11T01:02:48.065Z,77.01
2022-10-11T01:03:49.640Z,77.36
2022-10-11T01:05:05.893Z,77.13
2022-10-11T01:06:13.521Z,76.94
2022-10-11T01:07:16.121Z,76.73
2022-10-11T01:08:18.272Z,77.42
2022-10-11T01:09:21.165Z,77.12
2022-10-11T01:10:22.852Z,77.03
2022-10-11T01:11:27.217Z,77.41
2022-10-11T01:12:31.686Z,77.58
2022-10-11T01:14:17.392Z,77.08
2022-10-11T01:15:29.022Z,77.74
2022-10-11T01:16:55.827Z,78.72
2022-10-11T01:18:11.124Z,79.33
2022-10-11T01:19:24.909Z,79.44
2022-10-11T01:20:41.635Z,79.72
2022-10-11T01:21:55.616Z,79.95
2022-10-11T01:23:21.857Z,80.84
2022-10-11T01:24:42.052Z,80.96
2022-10-11T01:26:02.170Z,80.51
2022-10-11T01:27:17.803Z,80.57
2022-10-11T01:28:39.250Z,81.66
2022-10-11T01:30:03.678Z,81.31
2022-10-11T01:31:17.041Z,81.24
2022-10-11T01:32:50.624Z,81.40
2022-10-11T01:33:59.090Z,82.38
2022-10-11T01:35:27.998Z,82.16
2022-10-11T01:36:40.365Z,82.56
2022-10-11T01:37:55.637Z,82.62
2022-10-11T01:39:04.481Z,82.92
2022-10-11T01:40:24.941Z,82.81
2022-10-11T01:41:36.422Z,81.91
2022-10-11T01:42:40.054Z,83.24
2022-10-11T01:43:42.608Z,83.57
2022-10-11T01:44:47.664Z,83.90
2022-10-11T01:45:54.604Z,83.55
2022-10-11T01:46:56.286Z,83.62
2022-10-11T01:48:12.315Z,82.63
2022-10-11T01:49:13.832Z,82.01
2022-10-11T01:50:37.459Z,82.29
2022-10-11T01:52:06.295Z,81.79
2022-10-11T01:53:29.477Z,81.38
2022-10-11T01:54:56.972Z,81.11
2022-10-11T01:56:40.184Z,81.17
2022-10-11T01:57:48.234Z,82.04
2022-10-11T01:59:08.375Z,82.45
2022-10-11T02:00:25.956Z,83.08
2022-10-11T02:01:46.285Z,83.32
2022-10-11T02:02:52.451Z,83.77
2022-10-11T02:04:15.390Z,84.35
2022-10-11T02:05:51.756Z,84.46
2022-10-11T02:07:01.371Z,84.33
2022-10-11T02:08:12.243Z,84.29
2022-10-11T02:09:26.753Z,84.03
2022-10-11T02:10:37.548Z,83.41
2022-10-11T02:11:39.226Z,83.40
2022-10-11T02:12:48.376Z,83.55
2022-10-11T02:14:24.515Z,83.27
2022-10-11T02:15:30.598Z,83.12
2022-10-11T02:16:39.117Z,83.94
2022-10-11T02:17:45.613Z,83.13
2022-10-11T02:18:51.325Z,82.88
2022-10-11T02:19:56.438Z,82.86
2022-10-11T02:21:00.909Z,83.27
2022-10-11T02:22:08.659Z,82.47
2022-10-11T02:23:45.707Z,82.11
2022-10-11T02:24:51.785Z,83.02
2022-10-11T02:25:56.194Z,83.47
2022-10-11T02:27:00.025Z,82.99
2022-10-11T02:28:06.030Z,83.35
2022-10-11T02:29:12.160Z,83.11
2022-10-11T02:30:14.989Z,83.09
2022-10-11T02:31:17.902Z,83.53
2022-10-11T02:32:21.967Z,83.77
2022-10-11T02:33:47.958Z,84.06
2022-10-11T02:34:55.578Z,83.44
2022-10-11T02:36:06.385Z,83.59
2022-10-11T02:37:26.718Z,84.00
2022-10-11T02:38:37.502Z,84.40
2022-10-11T02:40:04.061Z,84.59
2022-10-11T02:41:30.271Z,83.83
2022-10-11T02:42:37.325Z,83.71
2022-10-11T02:43:44.257Z,83.70
2022-10-11T02:45:19.117Z,83.74
2022-10-11T02:46:22.132Z,84.19
2022-10-11T02:47:23.738Z,83.93
2022-10-11T02:48:28.516Z,84.51
2022-10-11T02:49:31.698Z,84.28
2022-10-11T02:50:33.489Z,84.51
2022-10-11T02:51:36.111Z,83.96
2022-10-11T02:52:37.676Z,85.13
2022-10-11T02:53:39.282Z,85.72
2022-10-11T02:54:40.815Z,86.31
2022-10-11T02:55:42.345Z,86.42
2022-10-11T02:56:43.894Z,86.83
2022-10-11T02:57:45.579Z,86.42
2022-10-11T02:58:47.212Z,85.81
2022-10-11T02:59:48.757Z,85.48
2022-10-11T03:00:51.005Z,85.89
2022-10-11T03:01:52.537Z,85.60
2022-10-11T03:02:54.172Z,86.44
2022-10-11T03:03:55.784Z,87.03
2022-10-11T03:04:57.629Z,87.17
2022-10-11T03:06:01.306Z,88.17
2022-10-11T03:07:03.598Z,87.86
2022-10-11T03:08:05.214Z,87.82
2022-10-11T03:09:07.056Z,87.91
2022-10-11T03:10:09.016Z,87.67
2022-10-11T03:11:10.551Z,87.59
2022-10-11T03:12:12.059Z,87.24
2022-10-11T03:13:17.899Z,86.82
2022-10-11T03:14:20.029Z,86.66
2022-10-11T03:15:21.570Z,87.54
2022-10-11T03:16:23.086Z,87.48
2022-10-11T03:17:36.180Z,87.69
2022-10-11T03:18:38.377Z,87.68
2022-10-11T03:19:39.906Z,86.84
2022-10-11T03:20:41.429Z,86.55
2022-10-11T03:21:43.029Z,87.35
2022-10-11T03:22:44.543Z,87.39
2022-10-11T03:23:46.203Z,87.45
2022-10-11T03:24:47.792Z,88.17
2022-10-11T03:25:49.310Z,88.12
2022-10-11T03:26:50.865Z,87.45
2022-10-11T03:27:52.389Z,87.40
2022-10-11T03:28:53.912Z,87.65
2022-10-11T03:29:55.781Z,87.51
2022-10-11T03:30:57.486Z,87.02
2022-10-11T03:31:59.403Z,87.30
2022-10-11T03:33:00.893Z,87.55
2022-10-11T03:34:02.677Z,87.01
2022-10-11T03:35:04.786Z,86.49
2022-10-11T03:36:06.876Z,86.44
2022-10-11T03:37:08.709Z,86.96
2022-10-11T03:38:14.197Z,86.84
2022-10-11T03:39:15.924Z,86.71
2022-10-11T03:40:17.662Z,86.47
2022-10-11T03:41:19.247Z,87.10
2022-10-11T03:42:20.940Z,86.68
2022-10-11T03:43:22.644Z,86.03
2022-10-11T03:44:25.219Z,87.05
2022-10-11T03:45:26.792Z,86.35
2022-10-11T03:46:28.343Z,85.76
2022-10-11T03:47:29.861Z,85.65
2022-10-11T03:48:31.592Z,84.58
2022-10-11T03:49:33.155Z,84.41
2022-10-11T03:50:35.313Z,83.75
2022-10-11T03:51:36.836Z,83.60
2022-10-11T03:52:38.381Z,83.65
2022-10-11T03:53:39.912Z,84.29
2022-10-11T03:54:41.410Z,84.81
2022-10-11T03:55:43.171Z,84.04
2022-10-11T03:56:44.718Z,84.93
2022-10-11T03:57:46.217Z,84.44
2022-10-11T03:58:47.963Z,85.02
2022-10-11T03:59:49.589Z,85.27
2022-10-11T04:00:52.873Z,84.99
2022-10-11T04:01:54.471Z,84.52
2022-10-11T04:02:56.101Z,84.79
2022-10-11T04:03:57.794Z,84.30
2022-10-11T04:04:59.316Z,84.72
2022-10-11T04:06:01.398Z,83.92
2022-10-11T04:07:03.385Z,84.37
2022-10-11T04:08:09.725Z,83.98
2022-10-11T04:09:13.465Z,83.84
2022-10-11T04:10:15.006Z,84.23
2022-10-11T04:11:16.573Z,83.96
2022-10-11T04:12:18.169Z,83.61
2022-10-11T04:13:19.687Z,83.70
2022-10-11T04:14:21.210Z,83.99
2022-10-11T04:15:22.818Z,84.10
2022-10-11T04:16:24.348Z,83.81
2022-10-11T04:17:25.991Z,83.75
2022-10-11T04:18:27.498Z,83.99
2022-10-11T04:19:29.147Z,83.13
2022-10-11T04:20:30.671Z,82.50
2022-10-11T04:21:32.392Z,82.82
2022-10-11T04:22:34.087Z,83.31
2022-10-11T04:23:35.724Z,83.44
2022-10-11T04:24:37.296Z,83.39
2022-10-11T04:25:39.663Z,84.09
2022-10-11T04:26:41.223Z,84.56
2022-10-11T04:27:43.026Z,84.80
2022-10-11T04:28:44.661Z,85.45
2022-10-11T04:29:46.189Z,85.29
2022-10-11T04:30:47.742Z,84.68
2022-10-11T04:31:49.442Z,84.63
2022-10-11T04:32:51.012Z,84.37
2022-10-11T04:33:52.611Z,84.60
2022-10-11T04:34:54.107Z,84.72
2022-10-11T04:35:56.831Z,85.01
2022-10-11T04:36:58.415Z,85.17
2022-10-11T04:37:59.975Z,85.30
2022-10-11T04:39:01.889Z,84.68
2022-10-11T04:40:05.401Z,83.95
2022-10-11T04:41:12.484Z,84.23
2022-10-11T04:42:14.039Z,84.56
2022-10-11T04:43:16.795Z,84.94
2022-10-11T04:44:18.358Z,85.38
2022-10-11T04:45:21.064Z,85.08
2022-10-11T04:46:22.767Z,85.07
2022-10-11T04:47:24.373Z,85.35
2022-10-11T04:48:25.971Z,85.01
2022-10-11T04:49:27.535Z,84.67
2022-10-11T04:50:29.073Z,84.31
2022-10-11T04:51:30.678Z,84.67
2022-10-11T04:52:32.287Z,85.08
2022-10-11T04:53:33.804Z,85.21
2022-10-11T04:54:35.379Z,84.55
2022-10-11T04:55:36.913Z,85.21
2022-10-11T04:56:38.426Z,85.19
2022-10-11T04:57:39.988Z,85.90
2022-10-11T04:58:41.604Z,86.00
2022-10-11T04:59:47.866Z,86.46
2022-10-11T05:00:51.455Z,86.66
2022-10-11T05:01:53.510Z,85.77
2022-10-11T05:02:55.290Z,85.54
2022-10-11T05:03:56.917Z,85.69
2022-10-11T05:04:58.689Z,85.61
2022-10-11T05:06:05.192Z,85.04
2022-10-11T05:07:07.363Z,84.73
2022-10-11T05:08:08.932Z,85.15
2022-10-11T05:09:10.627Z,84.42
2022-10-11T05:10:12.242Z,84.55
2022-10-11T05:11:16.922Z,84.28
2022-10-11T05:12:18.448Z,83.75
2022-10-11T05:13:20.023Z,83.73
2022-10-11T05:14:21.551Z,84.05
2022-10-11T05:15:23.088Z,83.36
2022-10-11T05:16:24.765Z,83.26
2022-10-11T05:17:26.310Z,82.80
2022-10-11T05:18:28.398Z,82.75
2022-10-11T05:19:30.269Z,83.14
2022-10-11T05:20:31.772Z,82.34
2022-10-11T05:21:33.469Z,82.63
2022-10-11T05:22:35.027Z,83.07
2022-10-11T05:23:37.263Z,83.45
2022-10-11T05:24:38.981Z,82.80
2022-10-11T05:25:40.516Z,82.84
2022-10-11T05:26:42.045Z,82.83
2022-10-11T05:27:43.571Z,84.14
2022-10-11T05:28:45.821Z,83.81
2022-10-11T05:29:47.443Z,84.91
2022-10-11T05:30:49.354Z,85.72
2022-10-11T05:31:50.873Z,86.75
2022-10-11T05:32:52.468Z,86.78
2022-10-11T05:33:54.097Z,87.08
2022-10-11T05:34:55.848Z,87.82
2022-10-11T05:35:57.426Z,89.49
2022-10-11T05:36:59.007Z,89.48
2022-10-11T05:38:00.557Z,89.17
2022-10-11T05:39:02.116Z,89.60
2022-10-11T05:40:04.233Z,89.04
2022-10-11T05:41:06.462Z,89.34
2022-10-11T05:42:10.035Z,90.02
2022-10-11T05:43:11.897Z,89.94
2022-10-11T05:44:13.483Z,90.35
2022-10-11T05:45:15.062Z,90.36
2022-10-11T05:46:16.833Z,90.01
2022-10-11T05:47:18.356Z,88.90
2022-10-11T05:48:19.882Z,89.03
2022-10-11T05:49:21.496Z,88.24
2022-10-11T05:50:24.384Z,87.85
2022-10-11T05:51:26.300Z,88.66
2022-10-11T05:52:27.801Z,88.56
2022-10-11T05:53:30.073Z,87.97
2022-10-11T05:54:31.749Z,87.82
2022-10-11T05:55:37.611Z,87.28
2022-10-11T05:56:39.545Z,87.36
2022-10-11T05:57:41.146Z,86.76
2022-10-11T05:58:43.137Z,87.29
2022-10-11T05:59:44.699Z,87.23
2022-10-11T06:00:46.955Z,86.46
2022-10-11T06:01:49.207Z,86.39
2022-10-11T06:02:50.783Z,86.20
2022-10-11T06:03:52.948Z,86.45
2022-10-11T06:04:54.515Z,86.14
2022-10-11T06:05:57.326Z,85.48
2022-10-11T06:06:59.009Z,84.53
2022-10-11T06:08:01.032Z,84.64
2022-10-11T06:09:02.581Z,84.91
2022-10-11T06:10:04.883Z,84.93
2022-10-11T06:11:13.810Z,86.27
2022-10-11T06:12:15.302Z,86.29
2022-10-11T06:13:16.857Z,85.90
2022-10-11T06:14:18.733Z,86.58
2022-10-11T06:15:20.412Z,86.08
2022-10-11T06:16:21.933Z,85.85
2022-10-11T06:17:24.113Z,86.22
2022-10-11T06:18:25.629Z,85.79
2022-10-11T06:19:27.674Z,85.89
2022-10-11T06:20:29.336Z,84.62
2022-10-11T06:21:31.234Z,85.05
2022-10-11T06:22:32.889Z,84.36
2022-10-11T06:23:34.553Z,82.62
2022-10-11T06:24:36.089Z,82.54
2022-10-11T06:25:37.799Z,82.13
2022-10-11T06:26:39.811Z,82.36
2022-10-11T06:27:41.369Z,82.14
2022-10-11T06:28:43.262Z,83.08
2022-10-11T06:29:44.804Z,83.31
2022-10-11T06:30:46.340Z,83.39
2022-10-11T06:31:48.868Z,82.54
2022-10-11T06:32:50.374Z,82.51
2022-10-11T06:33:51.974Z,82.55
2022-10-11T06:34:53.535Z,83.20
2022-10-11T06:36:03.936Z,84.05
2022-10-11T06:37:05.800Z,83.92
2022-10-11T06:38:07.425Z,84.12
2022-10-11T06:39:08.986Z,83.35
2022-10-11T06:40:11.092Z,84.24
2022-10-11T06:47:49.168Z,81.92
2022-10-11T06:48:51.224Z,81.71
2022-10-11T06:49:52.730Z,81.95
2022-10-11T06:50:59.926Z,81.76
2022-10-11T06:52:01.825Z,81.80
2022-10-11T06:53:03.443Z,81.23
2022-10-11T06:54:05.336Z,81.73
2022-10-11T06:55:07.206Z,81.52
2022-10-11T06:56:11.678Z,82.94
2022-10-11T06:57:13.254Z,82.54
2022-10-11T06:58:14.802Z,81.72
2022-10-11T06:59:16.344Z,82.34
2022-10-11T07:00:18.064Z,83.64
2022-10-11T07:01:21.514Z,81.02
2022-10-11T07:02:25.052Z,81.03
2022-10-11T07:03:26.885Z,80.40
2022-10-11T07:04:28.433Z,80.05
2022-10-11T07:05:32.087Z,80.25
2022-10-11T07:06:39.975Z,79.35
2022-10-11T07:07:41.544Z,79.37
2022-10-11T07:08:43.271Z,79.17
2022-10-11T07:09:44.785Z,78.44
2022-10-11T07:10:46.295Z,78.95
2022-10-11T07:11:48.910Z,78.26
2022-10-11T07:12:50.452Z,78.06
2022-10-11T07:13:57.174Z,77.90
2022-10-11T07:14:58.678Z,77.35
2022-10-11T07:16:10.000Z,76.91
2022-10-11T07:17:11.575Z,76.26
2022-10-11T07:18:13.361Z,76.47
2022-10-11T07:19:14.989Z,77.53
2022-10-11T07:20:16.688Z,78.13
2022-10-11T07:21:18.275Z,78.21
2022-10-11T07:22:19.810Z,78.77
2022-10-11T07:23:21.351Z,79.16
2022-10-11T07:24:23.103Z,79.12
2022-10-11T07:25:24.676Z,79.44
2022-10-11T07:26:26.584Z,79.25
2022-10-11T07:27:28.321Z,78.81
2022-10-11T07:28:30.778Z,78.58
2022-10-11T07:29:32.411Z,78.03
2022-10-11T07:30:34.073Z,77.92
2022-10-11T07:31:38.099Z,77.47
2022-10-11T07:32:39.838Z,76.93
2022-10-11T07:33:41.738Z,76.72
2022-10-11T07:34:43.749Z,77.25
2022-10-11T07:35:48.364Z,77.16
2022-10-11T07:36:50.353Z,77.43
2022-10-11T07:37:51.888Z,77.79
2022-10-11T07:38:53.519Z,77.05
2022-10-11T07:39:55.045Z,76.57
2022-10-11T07:40:56.638Z,76.68
2022-10-11T07:41:58.230Z,76.63
2022-10-11T07:43:00.877Z,76.72
2022-10-11T07:44:03.366Z,76.03
2022-10-11T07:45:05.532Z,76.04
2022-10-11T07:46:07.773Z,75.84
2022-10-11T07:47:11.454Z,75.38
2022-10-11T07:48:13.369Z,75.53
2022-10-11T07:49:15.085Z,74.34
2022-10-11T07:50:16.942Z,75.06
2022-10-11T07:51:21.299Z,74.36
2022-10-11T07:52:22.818Z,73.93
2022-10-11T07:53:24.348Z,73.55
2022-10-11T07:54:25.989Z,73.37
2022-10-11T07:55:27.808Z,73.31
2022-10-11T07:56:30.062Z,73.13
2022-10-11T07:57:31.950Z,73.64
2022-10-11T07:58:33.487Z,75.13
2022-10-11T07:59:35.081Z,75.41
2022-10-11T08:00:37.346Z,75.33
2022-10-11T08:01:38.953Z,74.83
2022-10-11T08:02:40.696Z,74.74
2022-10-11T08:03:42.242Z,74.09
2022-10-11T08:04:43.823Z,73.99
2022-10-11T08:05:45.697Z,73.52
2022-10-11T08:06:51.104Z,72.91
2022-10-11T08:07:55.071Z,73.65
2022-10-11T08:08:57.439Z,74.26
2022-10-11T08:09:58.978Z,74.22
2022-10-11T08:11:00.935Z,73.27
2022-10-11T08:12:02.506Z,73.96
2022-10-11T08:13:04.531Z,74.89
2022-10-11T08:14:09.110Z,74.57
2022-10-11T08:15:10.968Z,74.63
2022-10-11T08:16:13.354Z,73.52
2022-10-11T08:17:14.926Z,73.70
2022-10-11T08:18:16.619Z,74.22
2022-10-11T08:19:18.859Z,75.05
2022-10-11T08:20:20.446Z,74.08
2022-10-11T08:21:21.995Z,74.23
2022-10-11T08:22:23.879Z,74.34
2022-10-11T08:23:25.409Z,74.68
2022-10-11T08:24:26.979Z,75.75
2022-10-11T08:25:28.563Z,75.66
2022-10-11T08:26:30.966Z,75.05
2022-10-11T08:27:32.498Z,73.98
2022-10-11T08:28:34.186Z,73.14
2022-10-11T08:29:35.785Z,72.71
2022-10-11T08:30:37.337Z,73.12
2022-10-11T08:31:38.869Z,73.32
2022-10-11T08:32:40.492Z,73.19
2022-10-11T08:33:42.748Z,72.69
2022-10-11T08:34:44.272Z,72.95
2022-10-11T08:35:46.165Z,72.20
2022-10-11T08:36:48.628Z,72.35
2022-10-11T08:37:50.184Z,72.24
2022-10-11T08:38:51.753Z,72.39
2022-10-11T08:39:53.304Z,72.12
2022-10-11T08:40:57.076Z,72.13
2022-10-11T08:42:06.937Z,72.10
2022-10-11T08:43:15.316Z,72.02
2022-10-11T08:45:05.449Z,71.97
2022-10-11T08:46:04.624Z,71.49
2022-10-11T08:47:25.788Z,71.22
2022-10-11T08:48:56.957Z,70.70
2022-10-11T08:49:59.687Z,70.57
2022-10-11T08:51:02.670Z,70.18
2022-10-11T08:52:11.942Z,70.04
2022-10-11T08:53:28.752Z,69.92
2022-10-11T08:55:02.538Z,69.96
2022-10-11T08:56:05.249Z,70.16
2022-10-11T08:57:09.850Z,69.38
2022-10-11T08:58:19.548Z,69.17
2022-10-11T08:59:27.045Z,68.04
2022-10-11T09:00:32.780Z,68.57
2022-10-11T09:01:35.857Z,68.76
2022-10-11T09:03:06.838Z,69.07
2022-10-11T09:04:06.172Z,67.84
2022-10-11T09:05:14.172Z,67.98
2022-10-11T09:06:42.791Z,67.62
2022-10-11T09:08:09.457Z,67.67
2022-10-11T09:09:48.993Z,67.96
2022-10-11T09:11:28.527Z,68.22
2022-10-11T09:12:51.207Z,68.20
2022-10-11T09:14:28.419Z,68.30
2022-10-11T09:15:46.856Z,68.35
2022-10-11T09:17:18.756Z,68.51
2022-10-11T09:18:53.185Z,68.14
2022-10-11T09:20:33.376Z,68.26
2022-10-11T09:21:59.200Z,68.19
2022-10-11T09:23:11.778Z,68.62
2022-10-11T09:24:45.777Z,68.45
2022-10-11T09:25:47.281Z,68.68
2022-10-11T09:26:57.524Z,68.11
2022-10-11T09:28:16.056Z,67.47
2022-10-11T09:29:29.034Z,67.04
2022-10-11T09:30:31.558Z,67.46
2022-10-11T09:31:33.627Z,66.93
2022-10-11T09:32:39.705Z,65.85
2022-10-11T09:33:47.308Z,65.27
2022-10-11T09:34:59.826Z,65.10
2022-10-11T09:36:12.888Z,64.86
2022-10-11T09:37:35.451Z,65.19
2022-10-11T09:38:53.150Z,66.32
2022-10-11T09:40:10.830Z,65.44
2022-10-11T09:41:26.984Z,64.91
2022-10-11T09:42:28.504Z,64.71
2022-10-11T09:43:30.473Z,64.72
2022-10-11T09:44:46.046Z,64.67
2022-10-11T09:45:49.694Z,64.83
2022-10-11T09:46:53.534Z,66.00
2022-10-11T09:47:57.117Z,66.44
2022-10-11T09:49:02.800Z,66.17
2022-10-11T09:50:14.327Z,66.04
2022-10-11T09:51:20.718Z,66.00
2022-10-11T09:52:23.912Z,65.32
2022-10-11T09:53:55.276Z,65.34
2022-10-11T09:55:02.210Z,66.21
2022-10-11T09:56:05.384Z,66.68
2022-10-11T09:57:19.369Z,66.65
2022-10-11T09:58:32.089Z,67.12
2022-10-11T09:59:35.285Z,67.44
2022-10-11T10:00:37.137Z,66.78
2022-10-11T10:01:38.800Z,66.68
2022-10-11T10:02:48.932Z,66.91
2022-10-11T10:04:07.921Z,66.20
2022-10-11T10:05:09.429Z,66.02
2022-10-11T10:06:14.144Z,65.88
2022-10-11T10:07:15.893Z,65.66
2022-10-11T10:08:24.468Z,65.53
2022-10-11T10:09:30.490Z,64.88
2022-10-11T10:10:41.078Z,65.75
2022-10-11T10:11:42.797Z,65.69
2022-10-11T10:12:44.387Z,64.63
2022-10-11T10:13:56.027Z,64.80
2022-10-11T10:15:08.089Z,65.87
2022-10-11T10:16:20.097Z,65.59
2022-10-11T10:17:21.798Z,64.10
2022-10-11T10:18:29.873Z,64.26
2022-10-11T10:19:47.204Z,65.40
2022-10-11T10:20:57.009Z,64.34
2022-10-11T10:21:58.690Z,63.71
2022-10-11T10:23:17.501Z,63.93
2022-10-11T10:24:37.061Z,63.59
2022-10-11T10:25:43.328Z,63.13
2022-10-11T10:27:10.806Z,62.31
2022-10-11T10:28:22.975Z,61.99
2022-10-11T10:29:24.569Z,61.48
2022-10-11T10:30:26.783Z,61.82
2022-10-11T10:32:12.896Z,62.66
2022-10-11T10:33:11.785Z,62.52
2022-10-11T10:34:21.161Z,61.69
2022-10-11T10:35:48.642Z,61.50
2022-10-11T10:37:22.231Z,61.52
2022-10-11T10:38:29.255Z,62.21
2022-10-11T10:39:50.133Z,61.39
2022-10-11T10:40:53.840Z,61.37
2022-10-11T10:41:56.078Z,60.96
2022-10-11T10:42:58.053Z,61.01
2022-10-11T10:44:00.632Z,59.96
2022-10-11T10:45:02.758Z,60.05
2022-10-11T10:46:26.221Z,59.80
2022-10-11T10:47:53.248Z,60.19
2022-10-11T10:49:51.934Z,61.61
2022-10-11T10:50:58.001Z,62.66
2022-10-11T10:52:21.058Z,62.02
2022-10-11T10:53:29.134Z,61.82
2022-10-11T10:54:57.746Z,61.87
2022-10-11T10:56:18.073Z,61.80
2022-10-11T10:57:28.459Z,62.13
2022-10-11T10:58:52.460Z,62.91
2022-10-11T11:00:12.862Z,63.41
2022-10-11T11:01:26.299Z,63.87
2022-10-11T11:03:03.105Z,62.93
2022-10-11T11:04:10.599Z,61.28
2022-10-11T11:05:37.720Z,61.39
2022-10-11T11:06:54.868Z,61.23
2022-10-11T11:08:28.879Z,61.21
2022-10-11T11:09:33.489Z,61.21
2022-10-11T11:11:02.796Z,61.67
2022-10-11T11:12:29.424Z,61.45
2022-10-11T11:14:15.112Z,61.32
2022-10-11T11:15:41.225Z,61.50
2022-10-11T11:16:55.844Z,61.12
2022-10-11T11:18:03.349Z,61.00
2022-10-11T11:19:29.589Z,60.45
2022-10-11T11:20:59.010Z,60.62
2022-10-11T11:22:14.079Z,61.11
2022-10-11T11:23:15.525Z,61.37
2022-10-11T11:24:37.607Z,60.62
2022-10-11T11:25:44.903Z,60.89
2022-10-11T11:27:01.777Z,60.36
2022-10-11T11:28:15.194Z,59.92
2022-10-11T11:29:41.184Z,60.53
2022-10-11T11:31:01.643Z,61.59
2022-10-11T11:32:34.832Z,60.54
2022-10-11T11:33:59.576Z,59.72
2022-10-11T11:35:07.614Z,60.78
2022-10-11T11:36:14.391Z,60.25
2022-10-11T11:37:21.627Z,60.63
2022-10-11T11:38:35.441Z,60.73
2022-10-11T11:39:44.729Z,60.87
2022-10-11T11:40:51.966Z,60.62
2022-10-11T11:41:56.862Z,60.66
2022-10-11T11:43:15.332Z,62.00
2022-10-11T11:44:29.619Z,61.23
2022-10-11T11:45:54.903Z,60.09
2022-10-11T11:47:05.517Z,59.61
2022-10-11T11:48:13.931Z,59.30
2022-10-11T11:49:25.097Z,59.63
2022-10-11T11:50:28.641Z,59.92
2022-10-11T11:51:41.108Z,59.49
2022-10-11T11:52:45.660Z,58.85
2022-10-11T11:54:12.117Z,58.59
2022-10-11T11:55:19.716Z,58.45
2022-10-11T11:56:33.539Z,58.96
2022-10-11T11:57:41.116Z,58.84
2022-10-11T11:58:52.672Z,59.26
2022-10-11T12:00:06.033Z,59.46
2022-10-11T12:01:31.553Z,60.53
2022-10-11T12:02:39.500Z,60.98
2022-10-11T12:03:48.164Z,60.47
2022-10-11T12:04:51.173Z,61.49
2022-10-11T12:06:14.585Z,59.92
2022-10-11T12:07:20.400Z,60.69
2022-10-11T12:08:28.200Z,59.77
2022-10-11T12:09:30.861Z,60.20
2022-10-11T12:10:50.364Z,60.52
2022-10-11T12:12:05.795Z,60.03
2022-10-11T12:13:32.254Z,58.56
2022-10-11T12:14:36.929Z,58.42
2022-10-11T12:15:38.998Z,58.70
2022-10-11T12:17:06.016Z,58.27
2022-10-11T12:18:17.321Z,58.17
2022-10-11T12:19:20.365Z,58.18
2022-10-11T12:20:30.863Z,58.10
2022-10-11T12:21:40.685Z,58.00
2022-10-11T12:22:53.973Z,58.21
2022-10-11T12:23:58.010Z,58.41
2022-10-11T12:25:20.988Z,58.16
2022-10-11T12:26:28.595Z,58.14
2022-10-11T12:27:46.491Z,58.80
2022-10-11T12:29:18.683Z,59.06
2022-10-11T12:30:48.225Z,60.02
2022-10-11T12:32:01.853Z,60.08
2022-10-11T12:33:13.415Z,60.42
2022-10-11T12:34:26.781Z,60.43
2022-10-11T12:35:42.489Z,61.57
2022-10-11T12:36:47.017Z,61.88
2022-10-11T12:38:05.767Z,61.55
2022-10-11T12:39:19.504Z,61.60
2022-10-11T12:41:00.449Z,61.31
2022-10-11T12:42:20.800Z,60.19
2022-10-11T12:43:29.946Z,59.77
2022-10-11T12:44:31.509Z,59.36
2022-10-11T12:45:36.356Z,59.78
2022-10-11T12:46:59.316Z,58.60
2022-10-11T12:48:11.679Z,58.59
2022-10-11T12:49:28.993Z,58.37
2022-10-11T12:51:19.753Z,58.48
2022-10-11T12:52:34.035Z,59.48
2022-10-11T12:54:26.624Z,59.90
2022-10-11T12:55:59.022Z,59.01
2022-10-11T12:57:12.057Z,60.52
2022-10-11T12:58:26.946Z,60.65
2022-10-11T12:59:31.891Z,61.61
2022-10-11T13:01:03.975Z,63.21
2022-10-11T13:02:29.909Z,62.42
2022-10-11T13:03:36.614Z,61.83
2022-10-11T13:04:38.209Z,62.66
2022-10-11T13:05:47.714Z,62.68
2022-10-11T13:06:54.782Z,62.41
2022-10-11T13:08:02.698Z,62.27
2022-10-11T13:09:14.741Z,62.51
2022-10-11T13:10:22.124Z,63.08
2022-10-11T13:11:29.863Z,63.96
2022-10-11T13:12:40.496Z,64.02
2022-10-11T13:13:48.522Z,64.94
2022-10-11T13:15:05.404Z,64.61
2022-10-11T13:16:13.100Z,64.07
2022-10-11T13:17:25.609Z,63.93
2022-10-11T13:18:27.176Z,64.13
2022-10-11T13:19:30.464Z,64.70
2022-10-11T13:20:37.518Z,64.33
2022-10-11T13:21:42.150Z,63.83
2022-10-11T13:22:47.444Z,64.99
2022-10-11T13:23:49.099Z,64.82
2022-10-11T13:24:50.617Z,63.92
2022-10-11T13:25:53.585Z,63.95
2022-10-11T13:26:56.639Z,63.32
2022-10-11T13:28:01.219Z,63.28
2022-10-11T13:29:02.909Z,63.48
2022-10-11T13:30:13.077Z,64.02
2022-10-11T13:31:14.655Z,63.44
2022-10-11T13:32:21.779Z,63.45
2022-10-11T13:33:35.613Z,63.43
2022-10-11T13:34:41.261Z,63.67
2022-10-11T13:35:42.891Z,63.60
2022-10-11T13:36:44.649Z,63.49
2022-10-11T13:37:48.310Z,62.86
2022-10-11T13:38:54.120Z,63.67
2022-10-11T13:39:57.450Z,63.42
2022-10-11T13:41:02.992Z,63.46
2022-10-11T13:42:14.506Z,62.90
2022-10-11T13:43:17.523Z,63.04
2022-10-11T13:44:19.216Z,62.86
2022-10-11T13:45:30.706Z,66.33
2022-10-11T13:46:38.042Z,63.92
2022-10-11T13:47:40.265Z,63.92
2022-10-11T13:48:42.576Z,63.53
2022-10-11T13:49:53.429Z,63.71
2022-10-11T13:51:16.945Z,63.52
2022-10-11T13:52:18.469Z,62.36
2022-10-11T13:53:25.130Z,63.57
2022-10-11T13:55:04.579Z,63.26
2022-10-11T13:56:09.445Z,63.07
2022-10-11T13:57:13.191Z,62.83
2022-10-11T13:58:30.099Z,62.61
2022-10-11T13:59:31.712Z,63.55
2022-10-11T14:00:36.827Z,63.25
2022-10-11T14:01:40.899Z,63.57
2022-10-11T14:02:54.698Z,63.56
2022-10-11T14:04:02.718Z,64.38
2022-10-11T14:05:04.498Z,64.60
2022-10-11T14:06:07.255Z,65.50
2022-10-11T14:07:25.066Z,64.74
2022-10-11T14:08:32.408Z,65.48
2022-10-11T14:09:39.250Z,65.85
2022-10-11T14:10:46.450Z,66.14
2022-10-11T14:11:49.020Z,65.96
2022-10-11T14:13:02.630Z,65.13
2022-10-11T14:14:34.660Z,65.65
2022-10-11T14:15:38.120Z,66.04
2022-10-11T14:16:39.681Z,65.49
2022-10-11T14:17:44.149Z,65.33
2022-10-11T14:19:02.159Z,65.98
2022-10-11T14:20:12.002Z,65.63
2022-10-11T14:21:19.268Z,64.72
2022-10-11T14:22:20.809Z,65.52
2022-10-11T14:23:22.337Z,65.30
2022-10-11T14:24:24.081Z,65.43
2022-10-11T14:25:25.644Z,65.78
2022-10-11T14:26:32.877Z,66.03
2022-10-11T14:27:34.835Z,65.78
2022-10-11T14:28:36.541Z,65.59
2022-10-11T14:29:45.713Z,65.27
2022-10-11T14:30:57.174Z,65.48
2022-10-11T14:32:08.172Z,66.46
2022-10-11T14:33:11.433Z,66.07
2022-10-11T14:34:24.396Z,66.48
2022-10-11T14:35:31.720Z,66.32
2022-10-11T14:36:33.282Z,65.98
2022-10-11T14:37:34.795Z,65.25